Time;durP1;ratioP1;P1;durP2;ratioP2;P2;SDS_P1;SDS_P2;PMS_P1;PMS_P2;Temp;Humidity;BMP_temperature;BMP_pressure;BME280_temperature;BME280_humidity;BME280_pressure;Samples;Min_cycle;Max_cycle;Signal;HPM_P1;HPM_P2
2021/09/22 00:04:12;;;;;;;;;;;;;;;;;;;;;
2021/09/22 00:07:26;;;;;;;;;;;;;;;;;;;;;
2021/09/22 00:13:36;;;;;;;;;;;;;;;;;;;;;
2021/09/22 00:16:10;;;;;;;;;35.50;29.75;;;;;16.47;59.16;102629.03;5859964;24;74098;-91
2021/09/22 00:22:11;;;;;;;;;;;;;;;;;;;;;
2021/09/22 00:25:03;;;;;;;;;34.75;29.25;;;;;16.45;59.03;102630.75;5875224;24;76169;-90
2021/09/22 00:27:42;;;;;;;;;33.75;31.25;;;;;16.43;59.23;102627.16;5796774;24;45262;-90
2021/09/22 00:30:48;;;;;;;;;32.50;29.50;;;;;16.31;59.22;102606.50;5793417;24;45231;-91
2021/09/22 00:37:22;;;;;;;;;;;;;;;;;;;;;
2021/09/22 00:50:57;;;;;;;;;;;;;;;;;;;;;
2021/09/22 00:53:32;;;;;;;;;33.75;30.25;;;;;16.28;59.13;102612.66;5788620;24;73186;-92
2021/09/22 00:56:23;;;;;;;;;;;;;;;;;;;;;
2021/09/22 00:58:57;;;;;;;;;40.25;30.75;;;;;16.22;59.50;102603.66;5811805;24;64193;-92
2021/09/22 01:02:08;;;;;;;;;;;;;;;;;;;;;
2021/09/22 01:05:13;;;;;;;;;;;;;;;;;;;;;
2021/09/22 01:18:16;;;;;;;;;;;;;;;;;;;;;
2021/09/22 01:20:53;;;;;;;;;42.25;34.25;;;;;16.02;59.82;102580.16;5968566;23;45538;-92
2021/09/22 01:23:55;;;;;;;;;43.50;35.50;;;;;16.14;59.42;102599.06;5981801;23;45165;-92
2021/09/22 01:27:11;;;;;;;;;;;;;;;;;;;;;
2021/09/22 01:58:23;;;;;;;;;;;;;;;;;;;;;
2021/09/22 02:02:20;;;;;;;;;;;;;;;;;;;;;
2021/09/22 02:05:03;;;;;;;;;40.75;33.75;;;;;16.00;60.00;102589.84;5812560;24;65265;-91
2021/09/22 02:07:47;;;;;;;;;33.00;31.00;;;;;15.94;59.94;102574.66;5791204;24;46980;-91
2021/09/22 02:14:02;;;;;;;;;;;;;;;;;;;;;
2021/09/22 02:16:48;;;;;;;;;38.50;33.00;;;;;15.95;59.53;102574.69;5887649;24;65633;-90
2021/09/22 02:19:31;;;;;;;;;;;;;;;;;;;;;
2021/09/22 02:22:55;;;;;;;;;;;;;;;;;;;;;
2021/09/22 02:32:24;;;;;;;;;;;;;;;;;;;;;
2021/09/22 02:35:23;;;;;;;;;37.50;33.00;;;;;15.84;59.97;102539.94;6017924;23;72414;-90
2021/09/22 02:40:57;;;;;;;;;;;;;;;;;;;;;
2021/09/22 02:44:02;;;;;;;;;37.75;33.00;;;;;15.76;60.53;102520.31;6004263;23;76597;-90
2021/09/22 02:46:34;;;;;;;;;43.25;32.75;;;;;15.68;60.67;102504.22;6018938;23;44731;-91
2021/09/22 02:49:43;;;;;;;;;;;;;;;;;;;;;
2021/09/22 02:52:13;;;;;;;;;46.50;37.00;;;;;15.78;60.18;102518.59;6087426;23;44756;-91
2021/09/22 02:55:29;;;;;;;;;;;;;;;;;;;;;
2021/09/22 02:58:10;;;;;;;;;;;;;;;;;;;;;
2021/09/22 03:04:02;;;;;;;;;;;;;;;;;;;;;
2021/09/22 03:09:55;;;;;;;;;;;;;;;;;;;;;
2021/09/22 03:15:37;;;;;;;;;38.25;32.25;;;;;15.55;60.03;102486.22;6179760;23;44803;-91
2021/09/22 03:18:16;;;;;;;;;;;;;;;;;;;;;
2021/09/22 03:21:32;;;;;;;;;;;;;;;;;;;;;
2021/09/22 03:24:06;;;;;;;;;41.25;34.25;;;;;15.54;59.85;102482.69;6175226;23;68049;-90
2021/09/22 03:30:44;;;;;;;;;;;;;;;;;;;;;
2021/09/22 03:39:52;;;;;;;;;43.25;35.50;;;;;15.38;60.47;102484.94;5815358;24;45608;-92
2021/09/22 03:42:55;;;;;;;;;;;;;;;;;;;;;
2021/09/22 03:45:40;;;;;;;;;35.25;31.00;;;;;15.47;59.76;102510.78;5814241;24;72816;-92
2021/09/22 04:01:18;;;;;;;;;40.00;33.00;;;;;15.36;60.28;102510.50;6261465;22;67514;-92
2021/09/22 04:04:16;;;;;;;;;37.75;31.50;;;;;15.38;60.21;102515.81;6155685;23;45574;-92
2021/09/22 04:07:06;;;;;;;;;41.25;34.00;;;;;15.37;60.78;102514.06;6096404;23;46771;-91
2021/09/22 04:10:07;;;;;;;;;;;;;;;;;;;;;
2021/09/22 04:12:48;;;;;;;;;;;;;;;;;;;;;
2021/09/22 04:22:07;;;;;;;;;37.75;31.00;;;;;15.24;60.50;102529.63;6051591;23;45371;-91
2021/09/22 04:27:54;;;;;;;;;;;;;;;;;;;;;
2021/09/22 04:31:42;;;;;;;;;;;;;;;;;;;;;
2021/09/22 04:34:25;;;;;;;;;39.50;32.50;;;;;15.04;60.12;102511.44;5994565;23;45872;-92
2021/09/22 04:37:53;;;;;;;;;;;;;;;;;;;;;
2021/09/22 04:41:05;;;;;;;;;;;;;;;;;;;;;
2021/09/22 04:44:18;;;;;;;;;40.25;33.00;;;;;15.03;60.94;102509.66;6151157;23;73929;-92
2021/09/22 04:50:25;;;;;;;;;42.00;34.00;;;;;14.89;60.53;102489.84;6037623;23;45435;-92
2021/09/22 05:00:10;;;;;;;;;;;;;;;;;;;;;
2021/09/22 05:06:29;;;;;;;;;;;;;;;;;;;;;
2021/09/22 05:09:30;;;;;;;;;;;;;;;;;;;;;
2021/09/22 05:12:15;;;;;;;;;34.50;31.25;;;;;14.93;61.01;102524.38;5856445;24;71875;-91
2021/09/22 05:24:13;;;;;;;;;34.75;32.50;;;;;14.85;61.10;102528.53;5772730;24;45221;-84
2021/09/22 05:26:39;;;;;;;;;42.25;33.75;;;;;14.81;61.59;102521.34;5786840;24;45242;-83
2021/09/22 05:29:04;;;;;;;;;44.25;33.00;;;;;14.85;62.27;102525.91;5787360;24;45278;-84
2021/09/22 05:31:30;;;;;;;;;36.50;30.75;;;;;14.86;61.78;102533.00;5786406;24;46241;-88
2021/09/22 05:33:56;;;;;;;;;35.25;33.00;;;;;14.87;62.19;102523.31;5832235;24;45420;-87
2021/09/22 05:36:22;;;;;;;;;41.00;32.50;;;;;14.88;61.77;102531.31;5828800;24;45238;-89
2021/09/22 05:38:48;;;;;;;;;41.25;34.00;;;;;14.81;62.60;102513.41;5883481;24;45563;-87
2021/09/22 05:41:14;;;;;;;;;37.50;32.50;;;;;14.82;61.99;102524.06;5923413;24;45306;-88
2021/09/22 05:43:39;;;;;;;;;36.75;31.75;;;;;14.90;61.80;102534.88;5987510;23;45293;-88
2021/09/22 05:46:04;;;;;;;;;43.00;34.50;;;;;14.83;61.81;102516.97;6036885;23;45431;-89
2021/09/22 05:48:30;;;;;;;;;33.25;28.75;;;;;14.84;62.20;102526.78;6013021;23;45429;-90
2021/09/22 05:50:57;;;;;;;;;40.25;33.50;;;;;14.86;61.54;102527.72;6038332;23;45761;-89
2021/09/22 05:53:22;;;;;;;;;41.50;34.00;;;;;14.92;61.94;102542.88;6041331;23;45288;-90
2021/09/22 05:55:48;;;;;;;;;36.50;31.25;;;;;14.86;61.44;102533.00;6032877;23;45366;-90
2021/09/22 05:58:15;;;;;;;;;40.00;33.50;;;;;14.81;62.43;102523.97;6087248;23;45392;-87
2021/09/22 06:00:42;;;;;;;;;41.75;32.75;;;;;14.82;62.16;102520.50;6123820;23;45276;-88
2021/09/22 06:03:09;;;;;;;;;45.00;34.25;;;;;14.87;62.17;102529.50;6123227;23;45444;-89
2021/09/22 06:05:34;;;;;;;;;46.25;34.50;;;;;14.91;62.46;102544.59;6191802;22;45397;-87
2021/09/22 06:08:00;;;;;;;;;35.75;31.00;;;;;14.88;62.47;102539.25;6216066;22;45178;-87
2021/09/22 06:10:25;;;;;;;;;39.00;31.75;;;;;14.88;62.52;102535.69;6215751;22;45545;-88
2021/09/22 06:12:50;;;;;;;;;41.00;34.00;;;;;14.90;62.03;102533.97;6216775;22;45318;-90
2021/09/22 06:15:16;;;;;;;;;42.00;33.25;;;;;14.91;62.59;102528.72;6216856;22;45217;-88
2021/09/22 06:17:41;;;;;;;;;41.00;34.00;;;;;14.97;62.34;102546.56;6216246;22;45266;-88
2021/09/22 06:20:07;;;;;;;;;49.00;37.25;;;;;14.97;62.10;102543.91;6216426;22;45399;-90
2021/09/22 06:22:33;;;;;;;;;43.00;34.25;;;;;14.95;62.56;102536.78;6215849;22;44664;-87
2021/09/22 06:24:59;;;;;;;;;40.00;34.00;;;;;15.02;61.47;102544.00;6190553;22;45185;-86
2021/09/22 06:27:24;;;;;;;;;36.00;32.75;;;;;15.03;61.86;102543.19;6217025;22;45237;-88
2021/09/22 06:29:50;;;;;;;;;39.50;34.25;;;;;15.01;61.25;102537.84;6216794;22;45977;-88
2021/09/22 06:32:16;;;;;;;;;43.00;35.25;;;;;15.06;61.11;102548.53;6216543;22;45103;-89
2021/09/22 06:34:42;;;;;;;;;41.50;34.50;;;;;14.95;61.49;102537.69;6189898;22;45298;-88
2021/09/22 06:37:09;;;;;;;;;43.50;33.50;;;;;14.93;61.31;102534.97;6189929;22;45218;-88
2021/09/22 06:39:35;;;;;;;;;46.25;34.50;;;;;14.99;61.18;102538.66;6217352;22;45363;-88
2021/09/22 06:42:00;;;;;;;;;39.25;34.50;;;;;15.07;61.56;102557.41;6228554;22;45235;-89
2021/09/22 06:44:25;;;;;;;;;43.50;34.00;;;;;15.03;61.04;102546.72;6230427;22;45574;-88
2021/09/22 06:46:51;;;;;;;;;35.75;32.00;;;;;15.14;61.57;102549.66;6233236;22;45185;-89
2021/09/22 06:49:16;;;;;;;;;46.75;36.25;;;;;15.18;61.40;102549.75;6204258;22;47161;-89
2021/09/22 06:51:42;;;;;;;;;46.50;35.75;;;;;15.14;61.19;102549.66;6224214;22;45407;-88
2021/09/22 06:54:07;;;;;;;;;44.75;36.25;;;;;15.15;61.45;102551.47;6214777;22;45383;-88
2021/09/22 06:56:33;;;;;;;;;44.75;34.75;;;;;15.21;61.60;102555.16;6240580;22;45177;-86
2021/09/22 06:58:58;;;;;;;;;34.50;32.50;;;;;15.13;61.76;102531.97;6212036;22;47412;-85
2021/09/22 07:01:24;;;;;;;;;41.50;34.00;;;;;15.18;61.57;102540.06;6202652;22;44704;-90
2021/09/22 07:03:49;;;;;;;;;40.75;32.50;;;;;15.27;61.44;102550.88;6224023;22;45122;-88
2021/09/22 07:06:14;;;;;;;;;36.25;33.00;;;;;15.24;61.80;102544.63;6224406;22;44706;-89
2021/09/22 07:08:40;;;;;;;;;41.75;34.25;;;;;15.33;61.00;102557.22;6200986;22;47153;-87
2021/09/22 07:11:07;;;;;;;;;37.50;32.50;;;;;15.35;61.36;102559.06;6201751;22;45225;-89
2021/09/22 07:13:34;;;;;;;;;41.50;34.50;;;;;15.30;61.80;102546.53;6226903;22;45209;-88
2021/09/22 07:15:59;;;;;;;;;43.25;35.00;;;;;15.42;61.44;102564.53;6224457;22;45261;-88
2021/09/22 07:18:25;;;;;;;;;41.75;34.25;;;;;15.45;60.90;102569.91;6227597;22;45280;-90
2021/09/22 07:20:50;;;;;;;;;39.50;33.25;;;;;15.44;60.90;102565.47;6201041;22;45213;-89
2021/09/22 07:23:16;;;;;;;;;42.75;34.00;;;;;15.41;61.13;102558.31;6198559;22;45277;-88
2021/09/22 07:25:42;;;;;;;;;46.00;33.75;;;;;15.51;61.52;102578.00;6227635;22;44651;-88
2021/09/22 07:28:07;;;;;;;;;43.00;35.75;;;;;15.46;61.46;102572.56;6227909;22;45877;-90
2021/09/22 07:30:33;;;;;;;;;35.75;33.00;;;;;15.47;60.86;102570.84;6201476;22;45285;-88
2021/09/22 07:33:00;;;;;;;;;37.75;34.50;;;;;15.49;61.50;102574.41;6228318;22;45166;-89
2021/09/22 07:35:26;;;;;;;;;40.75;33.75;;;;;15.51;61.60;102575.34;6201912;22;45429;-88
2021/09/22 07:37:51;;;;;;;;;37.25;31.50;;;;;15.58;61.35;102581.72;6199304;22;47253;-91
2021/09/22 07:40:18;;;;;;;;;36.25;32.25;;;;;15.56;60.09;102570.19;6218620;22;45226;-89
2021/09/22 07:42:44;;;;;;;;;35.50;31.00;;;;;15.63;60.61;102586.28;6192268;22;45357;-90
2021/09/22 07:45:11;;;;;;;;;39.00;33.50;;;;;15.56;61.43;102571.09;6221233;22;45367;-90
2021/09/22 07:47:37;;;;;;;;;43.50;34.25;;;;;15.55;60.80;102558.69;6219525;22;45315;-90
2021/09/22 07:50:05;;;;;;;;;39.25;32.75;;;;;15.64;61.37;102576.59;6221023;22;45392;-90
2021/09/22 07:52:31;;;;;;;;;34.50;32.50;;;;;15.71;61.06;102586.50;6228869;22;45273;-91
2021/09/22 07:54:56;;;;;;;;;40.50;33.00;;;;;15.71;60.00;102586.50;6204873;22;45477;-87
2021/09/22 07:57:22;;;;;;;;;38.00;32.25;;;;;15.74;60.39;102583.91;6234666;22;45176;-86
2021/09/22 07:59:48;;;;;;;;;42.25;33.75;;;;;15.71;60.72;102580.28;6239799;22;44673;-88
2021/09/22 08:02:13;;;;;;;;;45.00;34.00;;;;;15.65;60.48;102556.28;6238090;22;45193;-89
2021/09/22 08:04:39;;;;;;;;;40.25;33.00;;;;;15.79;58.84;102584.03;6210066;22;44767;-90
2021/09/22 08:07:04;;;;;;;;;38.00;30.75;;;;;15.76;59.32;102585.72;6229093;22;45259;-90
2021/09/22 08:09:32;;;;;;;;;46.00;34.25;;;;;15.73;60.41;102570.63;6198677;22;45216;-91
2021/09/22 08:11:58;;;;;;;;;39.00;34.00;;;;;15.77;60.50;102572.50;6223760;22;45300;-89
2021/09/22 08:14:29;;;;;;;;;46.00;37.75;;;;;15.85;60.02;102581.53;6196011;22;45451;-90
2021/09/22 08:16:58;;;;;;;;;37.00;31.75;;;;;15.91;60.25;102585.19;6218971;22;45344;-90
2021/09/22 08:19:23;;;;;;;;;35.25;33.00;;;;;15.94;60.01;102579.97;6218125;22;45193;-90
2021/09/22 08:21:49;;;;;;;;;39.50;32.00;;;;;16.00;60.25;102588.09;6218077;22;45183;-89
2021/09/22 08:24:14;;;;;;;;;37.00;31.75;;;;;15.98;59.53;102577.44;6220387;22;45211;-88
2021/09/22 08:26:40;;;;;;;;;28.75;27.25;;;;;16.09;59.08;102587.44;6192623;22;48422;-89
2021/09/22 08:29:05;;;;;;;;;31.75;28.75;;;;;16.06;58.73;102580.31;6191505;22;45262;-89
2021/09/22 08:31:31;;;;;;;;;38.50;30.50;;;;;16.17;59.66;102585.88;6218577;22;45627;-90
2021/09/22 08:33:56;;;;;;;;;44.25;35.50;;;;;16.23;59.34;102587.78;6191948;22;45183;-89
2021/09/22 08:36:22;;;;;;;;;47.00;37.75;;;;;16.17;58.70;102572.59;6191553;22;47380;-92
2021/09/22 08:38:47;;;;;;;;;53.25;41.75;;;;;16.28;58.17;102590.53;6193436;22;45298;-91
2021/09/22 08:41:13;;;;;;;;;51.25;40.75;;;;;16.35;57.67;102589.81;6218376;22;45288;-90
2021/09/22 08:43:41;;;;;;;;;53.75;44.75;;;;;16.37;57.90;102587.22;6192058;22;45405;-89
2021/09/22 08:46:06;;;;;;;;;51.25;42.25;;;;;16.34;57.44;102566.78;6191367;22;47445;-88
2021/09/22 08:48:32;;;;;;;;;50.75;42.50;;;;;16.43;57.59;102584.69;6190644;22;45756;-90
2021/09/22 08:50:57;;;;;;;;;52.50;42.00;;;;;16.53;57.16;102591.09;6216269;22;45330;-89
2021/09/22 08:53:23;;;;;;;;;49.00;41.25;;;;;16.52;56.76;102589.31;6216938;22;45165;-89
2021/09/22 08:55:49;;;;;;;;;49.75;39.50;;;;;16.60;57.05;102593.03;6217119;22;45502;-89
2021/09/22 08:58:14;;;;;;;;;46.75;38.00;;;;;16.56;57.19;102577.91;6190188;22;45257;-90
2021/09/22 09:00:40;;;;;;;;;47.75;36.75;;;;;16.70;57.17;102591.47;6191403;22;45336;-91
2021/09/22 09:03:06;;;;;;;;;45.75;36.50;;;;;16.67;57.05;102584.31;6219008;22;45267;-90
2021/09/22 09:05:31;;;;;;;;;54.25;41.50;;;;;16.74;57.41;102581.81;6218758;22;45376;-90
2021/09/22 09:08:02;;;;;;;;;53.50;42.25;;;;;16.75;57.17;102580.97;6218106;22;45374;-91
2021/09/22 09:10:34;;;;;;;;;57.25;43.00;;;;;16.85;57.21;102592.66;6190070;22;45348;-91
2021/09/22 09:13:01;;;;;;;;;52.75;42.00;;;;;16.87;56.16;102590.94;6185910;23;45356;-89
2021/09/22 09:15:35;;;;;;;;;55.25;43.25;;;;;16.91;56.59;102582.16;6206991;22;45460;-93
2021/09/22 09:18:15;;;;;;;;;48.25;39.00;;;;;17.07;56.51;102598.44;6194473;22;45329;-91
2021/09/22 09:20:47;;;;;;;;;49.75;37.75;;;;;17.12;57.14;102584.34;6224681;22;45110;-90
2021/09/22 09:23:16;;;;;;;;;45.75;39.00;;;;;17.21;55.67;102585.44;6198389;22;45484;-91
2021/09/22 09:25:45;;;;;;;;;52.50;41.25;;;;;17.39;55.78;102576.00;6219995;22;45364;-90
2021/09/22 09:28:27;;;;;;;;;50.00;38.75;;;;;17.89;54.93;102580.44;6219169;22;45436;-91
2021/09/22 09:31:13;;;;;;;;;50.50;40.50;;;;;18.55;54.04;102573.41;6191364;22;45343;-92
2021/09/22 09:33:53;;;;;;;;;49.00;35.75;;;;;19.66;53.56;102584.44;6218373;22;45229;-91
2021/09/22 09:36:34;;;;;;;;;50.25;39.75;;;;;20.86;51.97;102584.31;6220069;22;45240;-90
2021/09/22 09:39:07;;;;;;;;;42.50;36.25;;;;;21.78;50.42;102572.03;6196575;22;45360;-90
2021/09/22 09:41:38;;;;;;;;;33.00;27.00;;;;;22.53;48.90;102585.28;6238454;22;45342;-89
2021/09/22 09:44:07;;;;;;;;;36.00;33.00;;;;;23.01;47.72;102563.66;6213530;22;44802;-90
2021/09/22 09:46:34;;;;;;;;;26.00;23.33;;;;;23.53;46.56;102571.41;6205295;22;47945;-89
2021/09/22 09:49:05;;;;;;;;;25.00;25.00;;;;;24.03;46.95;102581.69;6205687;22;45258;-88
2021/09/22 09:51:35;;;;;;;;;26.33;24.00;;;;;24.42;44.88;102561.59;6229011;22;45186;-90
2021/09/22 09:54:35;;;;;;;;;25.67;21.67;;;;;24.95;43.80;102571.66;6199311;22;45293;-89
2021/09/22 09:57:12;;;;;;;;;29.00;23.00;;;;;25.29;43.74;102570.31;6125977;23;45250;-90
2021/09/22 09:59:49;;;;;;;;;21.00;20.00;;;;;25.62;40.52;102563.47;6125827;23;45417;-89
2021/09/22 10:02:28;;;;;;;;;23.00;21.67;;;;;26.01;41.53;102563.72;6125076;23;45340;-90
2021/09/22 10:04:56;;;;;;;;;25.33;19.67;;;;;26.30;41.27;102550.56;6125485;23;45399;-91
2021/09/22 10:07:22;;;;;;;;;21.67;19.00;;;;;26.76;39.44;102566.72;6123718;23;46641;-88
2021/09/22 10:09:49;;;;;;;;;20.67;19.33;;;;;27.17;40.42;102565.84;6125454;23;45220;-90
2021/09/22 10:12:16;;;;;;;;;21.00;18.33;;;;;27.69;39.58;102557.31;6125580;23;45423;-89
2021/09/22 10:14:44;;;;;;;;;20.00;20.00;;;;;28.66;39.32;102556.50;6101120;23;45369;-90
2021/09/22 10:17:10;;;;;;;;;19.33;17.67;;;;;29.69;37.22;102552.31;6128344;23;46452;-90
2021/09/22 10:19:36;;;;;;;;;25.67;22.00;;;;;30.68;36.43;102563.16;6128515;23;45404;-90
2021/09/22 10:22:02;;;;;;;;;20.00;18.33;;;;;31.51;33.93;102558.97;6126430;23;45219;-91
2021/09/22 10:24:28;;;;;;;;;21.67;21.67;;;;;32.24;34.19;102561.19;6125002;23;45335;-90
2021/09/22 10:26:54;;;;;;;;;21.00;17.33;;;;;32.87;32.21;102544.63;6124488;23;45419;-90
2021/09/22 10:29:35;;;;;;;;;19.00;19.00;;;;;33.54;32.53;102545.88;6124288;23;45409;-89
2021/09/22 10:32:00;;;;;;;;;22.00;16.33;;;;;34.07;30.01;102551.28;6125081;23;45196;-91
2021/09/22 10:34:35;;;;;;;;;22.33;20.33;;;;;34.59;28.06;102547.56;6213829;22;45133;-91
2021/09/22 10:37:05;;;;;;;;;23.67;23.33;;;;;34.93;29.96;102529.25;6217106;22;45313;-89
2021/09/22 10:39:36;;;;;;;;;17.33;16.33;;;;;35.40;29.27;102533.81;6189982;22;45805;-92
2021/09/22 10:42:28;;;;;;;;;16.00;16.00;;;;;35.89;28.72;102527.19;6223324;22;45191;-92
2021/09/22 10:45:20;;;;;;;;;16.67;14.00;;;;;36.46;28.05;102535.47;6192348;22;45144;-91
2021/09/22 10:47:47;;;;;;;;;17.33;14.67;;;;;36.88;26.92;102514.53;6218218;22;46594;-91
2021/09/22 10:50:43;;;;;;;;;14.33;13.33;;;;;37.33;26.06;102524.31;6228361;22;45162;-89
2021/09/22 10:53:47;;;;;;;;;18.67;15.33;;;;;37.71;25.54;102498.75;6215114;22;45190;-90
2021/09/22 10:56:16;;;;;;;;;12.67;12.67;;;;;38.22;24.88;102524.38;6103015;23;45298;-92
2021/09/22 10:58:53;;;;;;;;;16.67;15.00;;;;;38.58;24.46;102512.66;6149316;23;45293;-91
2021/09/22 11:01:44;;;;;;;;;13.00;12.00;;;;;38.98;23.43;102516.09;6106169;23;45361;-92
2021/09/22 11:04:13;;;;;;;;;12.67;11.00;;;;;39.29;22.29;102512.84;6095796;23;45576;-93
2021/09/22 11:06:48;;;;;;;;;12.00;10.33;;;;;39.65;21.81;102515.53;6099226;23;45349;-91
2021/09/22 11:09:28;;;;;;;;;16.00;14.67;;;;;39.92;22.73;102517.06;6124365;23;45400;-92
2021/09/22 11:11:58;;;;;;;;;14.33;14.00;;;;;40.20;21.71;102511.19;6123327;23;45338;-91
2021/09/22 11:14:27;;;;;;;;;11.67;11.67;;;;;40.44;21.01;102511.00;6123983;23;45329;-92
2021/09/22 11:16:56;;;;;;;;;14.00;13.00;;;;;40.53;21.58;102496.44;6125770;23;45398;-92
2021/09/22 11:19:22;;;;;;;;;14.00;13.33;;;;;40.79;21.28;102497.13;6124236;23;45390;-91
2021/09/22 11:21:48;;;;;;;;;13.00;11.00;;;;;40.88;20.47;102496.34;6123916;23;45673;-91
2021/09/22 11:24:15;;;;;;;;;13.33;12.33;;;;;40.60;21.01;102496.78;6130252;23;45383;-91
2021/09/22 11:27:05;;;;;;;;;12.00;11.00;;;;;39.84;19.45;102487.41;6149865;23;45305;-92
2021/09/22 11:29:34;;;;;;;;;12.00;10.00;;;;;39.23;18.46;102493.06;6212187;22;45461;-91
2021/09/22 11:32:08;;;;;;;;;10.00;10.00;;;;;38.60;20.57;102485.06;6190561;22;45343;-89
2021/09/22 11:34:39;;;;;;;;;9.33;9.33;;;;;37.90;21.09;102472.75;6217053;22;45347;-91
2021/09/22 11:37:08;;;;;;;;;13.00;9.33;;;;;37.43;21.91;102484.28;6191106;22;45272;-92
2021/09/22 11:39:35;;;;;;;;;9.67;9.00;;;;;36.90;21.55;102461.38;6214636;22;48097;-89
2021/09/22 11:42:01;;;;;;;;;8.00;7.67;;;;;36.57;22.16;102476.38;6217221;22;45455;-92
2021/09/22 11:44:28;;;;;;;;;11.33;11.33;;;;;36.22;22.85;102466.75;6214821;22;45285;-91
2021/09/22 11:46:59;;;;;;;;;10.33;9.67;;;;;35.93;22.70;102475.91;6190356;22;45139;-90
2021/09/22 11:49:32;;;;;;;;;11.00;11.00;;;;;35.57;22.26;102458.97;6190294;22;47072;-92
2021/09/22 11:52:09;;;;;;;;;8.67;8.00;;;;;35.32;23.05;102476.91;6222907;22;45179;-91
2021/09/22 11:54:35;;;;;;;;;10.33;9.33;;;;;35.03;23.67;102464.00;6224566;22;45327;-89
2021/09/22 11:57:06;;;;;;;;;9.00;8.00;;;;;34.76;23.55;102449.16;6236741;22;44710;-90
2021/09/22 11:59:35;;;;;;;;;14.00;9.67;;;;;34.46;23.28;102444.53;6211956;22;47119;-89
2021/09/22 12:02:01;;;;;;;;;13.00;10.67;;;;;34.14;23.30;102434.50;6240919;22;44826;-90
2021/09/22 12:04:39;;;;;;;;;11.00;9.67;;;;;33.90;24.03;102436.78;6216053;22;44666;-90
2021/09/22 12:07:06;;;;;;;;;11.67;10.00;;;;;33.53;23.72;102443.25;6215539;22;44778;-88
2021/09/22 12:09:43;;;;;;;;;8.67;8.00;;;;;33.02;23.64;102433.19;6189800;22;47899;-89
2021/09/22 12:12:20;;;;;;;;;9.00;7.00;;;;;32.62;24.62;102433.41;6189523;22;45360;-88
2021/09/22 12:14:47;;;;;;;;;11.67;10.33;;;;;32.16;24.35;102429.22;6190124;22;45210;-89
2021/09/22 12:17:15;;;;;;;;;9.00;9.00;;;;;31.78;25.34;102426.38;6217318;22;45261;-88
2021/09/22 12:19:41;;;;;;;;;9.00;8.67;;;;;31.34;25.74;102423.84;6218081;22;46706;-90
2021/09/22 12:22:08;;;;;;;;;8.67;8.67;;;;;30.83;25.49;102409.66;6218706;22;45305;-89
2021/09/22 12:24:37;;;;;;;;;9.00;7.67;;;;;30.52;26.09;102419.97;6217838;22;45266;-89
2021/09/22 12:27:02;;;;;;;;;12.33;9.00;;;;;30.14;25.94;102414.25;6190150;22;45368;-91
2021/09/22 12:29:29;;;;;;;;;11.00;11.00;;;;;29.76;26.10;102417.50;6189136;22;46937;-89
2021/09/22 12:32:05;;;;;;;;;9.00;8.33;;;;;29.27;26.92;102411.09;6215619;22;45349;-88
2021/09/22 12:34:31;;;;;;;;;9.00;9.00;;;;;28.98;27.14;102413.84;6187660;22;45435;-87
2021/09/22 12:36:58;;;;;;;;;7.33;7.00;;;;;28.62;27.46;102409.63;6215752;22;45379;-88
2021/09/22 12:39:26;;;;;;;;;8.33;7.00;;;;;28.33;28.37;102403.31;6215871;22;45410;-87
2021/09/22 12:42:07;;;;;;;;;9.00;8.00;;;;;28.00;28.51;102409.72;6215344;22;45388;-88
2021/09/22 12:45:13;;;;;;;;;8.00;8.00;;;;;27.53;28.89;102389.41;6188262;22;45258;-87
2021/09/22 12:47:59;;;;;;;;;8.00;8.00;;;;;27.29;29.53;102402.66;6122465;23;45333;-87
2021/09/22 12:50:34;;;;;;;;;9.00;8.00;;;;;27.02;29.56;102399.75;6121742;23;45481;-88
2021/09/22 12:53:10;;;;;;;;;11.00;8.33;;;;;26.77;30.15;102397.69;6123363;23;45418;-88
2021/09/22 12:55:44;;;;;;;;;9.33;8.33;;;;;26.57;31.14;102396.34;6098725;23;45368;-88
2021/09/22 12:58:13;;;;;;;;;8.67;8.67;;;;;26.35;30.66;102388.75;6125742;23;45377;-86
2021/09/22 13:00:39;;;;;;;;;10.33;8.00;;;;;26.16;31.08;102386.47;6134949;23;46245;-87
2021/09/22 13:03:11;;;;;;;;;11.33;9.00;;;;;25.87;31.04;102375.41;6131166;23;45203;-88
2021/09/22 13:05:42;;;;;;;;;8.33;8.33;;;;;25.62;31.75;102361.53;6132683;23;45280;-89
2021/09/22 13:08:13;;;;;;;;;10.67;8.33;;;;;25.52;31.91;102372.50;6132698;23;45634;-87
2021/09/22 13:10:56;;;;;;;;;7.67;6.67;;;;;25.34;32.24;102368.34;6134282;23;45261;-88
2021/09/22 13:13:22;;;;;;;;;7.00;7.00;;;;;25.14;32.61;102342.72;6126424;23;45238;-86
2021/09/22 13:15:51;;;;;;;;;8.67;7.00;;;;;24.97;32.74;102343.94;6100002;23;45286;-88
2021/09/22 13:18:16;;;;;;;;;10.00;8.33;;;;;24.90;33.03;102352.97;6126658;23;45253;-89
2021/09/22 13:20:43;;;;;;;;;7.00;7.00;;;;;24.64;33.55;102335.50;6139895;22;48058;-88
2021/09/22 13:23:22;;;;;;;;;12.00;8.00;;;;;24.50;33.47;102324.94;6220884;22;45387;-89
2021/09/22 13:25:47;;;;;;;;;8.67;7.00;;;;;24.41;33.78;102328.66;6204718;22;45298;-88
2021/09/22 13:28:13;;;;;;;;;8.33;7.00;;;;;24.38;34.12;102331.44;6230908;22;44687;-89
2021/09/22 13:30:38;;;;;;;;;9.67;8.33;;;;;24.31;34.42;102332.41;6222133;22;45491;-88
2021/09/22 13:33:03;;;;;;;;;7.33;7.33;;;;;24.23;34.45;102332.53;6226728;22;45354;-88
2021/09/22 13:35:29;;;;;;;;;8.00;7.33;;;;;24.09;34.14;102328.25;6223504;22;45199;-88
2021/09/22 13:37:54;;;;;;;;;8.00;8.00;;;;;24.05;35.24;102321.09;6197159;22;45174;-88
2021/09/22 13:40:19;;;;;;;;;9.33;8.00;;;;;23.98;35.12;102314.06;6197039;22;46704;-88
2021/09/22 13:42:45;;;;;;;;;10.67;7.00;;;;;23.94;35.69;102318.59;6193296;22;45175;-88
2021/09/22 13:45:10;;;;;;;;;11.00;10.67;;;;;23.88;35.92;102314.19;6217463;22;45102;-88
2021/09/22 13:47:36;;;;;;;;;9.67;8.00;;;;;23.84;35.28;102307.06;6190314;22;45393;-89
2021/09/22 13:50:02;;;;;;;;;8.33;6.00;;;;;23.78;35.89;102304.47;6188780;22;47997;-90
2021/09/22 13:52:27;;;;;;;;;10.00;9.00;;;;;23.74;34.88;102308.09;6188876;22;45235;-90
2021/09/22 13:54:53;;;;;;;;;7.67;7.00;;;;;23.66;35.54;102303.75;6189592;22;45175;-90
2021/09/22 13:57:18;;;;;;;;;8.00;8.00;;;;;23.59;36.11;102299.34;6214599;22;45390;-89
2021/09/22 13:59:44;;;;;;;;;7.00;7.00;;;;;23.51;35.58;102288.72;6216672;22;45914;-88
2021/09/22 14:02:09;;;;;;;;;10.00;8.33;;;;;23.46;36.24;102294.13;6216715;22;45397;-88
2021/09/22 14:04:35;;;;;;;;;8.00;7.00;;;;;23.44;37.17;102295.91;6189608;22;45265;-90
2021/09/22 14:07:02;;;;;;;;;7.67;7.67;;;;;23.45;37.31;102296.81;6221501;22;45215;-89
2021/09/22 14:09:27;;;;;;;;;7.67;7.67;;;;;23.37;36.48;102291.56;6189991;22;47197;-87
2021/09/22 14:11:53;;;;;;;;;7.67;7.67;;;;;23.40;36.16;102298.66;6216795;22;45340;-89
2021/09/22 14:14:18;;;;;;;;;13.00;9.33;;;;;23.33;37.27;102290.66;6214871;22;45248;-89
2021/09/22 14:16:43;;;;;;;;;8.00;6.00;;;;;23.20;36.99;102279.22;6189800;22;45183;-88
2021/09/22 14:19:09;;;;;;;;;8.33;6.00;;;;;23.27;37.55;102282.69;6188540;22;47168;-88
2021/09/22 14:21:34;;;;;;;;;9.00;7.00;;;;;23.15;36.84;102267.63;6189599;22;45171;-90
2021/09/22 14:24:00;;;;;;;;;8.00;6.33;;;;;23.10;37.15;102267.69;6190173;22;45223;-87
2021/09/22 14:26:25;;;;;;;;;8.00;7.00;;;;;23.07;38.13;102270.41;6189941;22;45122;-90
2021/09/22 14:28:52;;;;;;;;;11.67;9.00;;;;;23.04;38.61;102261.50;6217007;22;46165;-88
2021/09/22 14:31:17;;;;;;;;;9.33;8.00;;;;;22.94;38.80;102258.94;6216633;22;45281;-91
2021/09/22 14:33:43;;;;;;;;;8.67;7.67;;;;;22.92;38.52;102258.06;6216833;22;45722;-88
2021/09/22 14:36:09;;;;;;;;;11.00;9.67;;;;;22.88;38.96;102256.31;6217128;22;45520;-88
2021/09/22 14:38:34;;;;;;;;;9.00;8.33;;;;;22.87;38.66;102249.16;6217194;22;45455;-87
2021/09/22 14:41:00;;;;;;;;;10.00;9.00;;;;;22.90;38.29;102263.44;6217141;22;45261;-88
2021/09/22 14:43:25;;;;;;;;;10.00;10.00;;;;;22.84;39.26;102262.59;6194274;22;45365;-89
2021/09/22 14:45:51;;;;;;;;;8.67;8.33;;;;;22.77;38.59;102246.59;6224455;22;45134;-88
2021/09/22 14:48:16;;;;;;;;;9.67;7.67;;;;;22.66;39.01;102232.38;6227720;22;46196;-88
2021/09/22 14:50:42;;;;;;;;;7.33;7.00;;;;;22.63;39.96;102229.72;6227530;22;45190;-88
2021/09/22 14:53:07;;;;;;;;;10.00;9.00;;;;;22.56;39.65;102213.69;6225829;22;45250;-90